createdAt,value
2023-02-02T00:00:27.244Z,4.8
2023-02-02T00:01:30.725Z,4.8
2023-02-02T00:02:33.444Z,4.8
2023-02-02T00:03:36.958Z,4.8
2023-02-02T00:04:39.463Z,4.8
2023-02-02T00:05:42.264Z,4.8
2023-02-02T00:06:45.882Z,4.9
2023-02-02T00:07:49.386Z,4.9
2023-02-02T00:08:52.367Z,4.9
2023-02-02T00:09:55.425Z,4.9
2023-02-02T00:10:58.568Z,4.9
2023-02-02T00:12:01.734Z,4.9
2023-02-02T00:13:04.820Z,4.9
2023-02-02T00:14:08.456Z,5
2023-02-02T00:15:11.652Z,5
2023-02-02T00:16:15.658Z,5
2023-02-02T00:17:19.294Z,5
2023-02-02T00:18:22.723Z,5
2023-02-02T00:19:25.993Z,5.1
2023-02-02T00:20:28.419Z,5.1
2023-02-02T00:21:32.409Z,5.1
2023-02-02T00:22:35.960Z,5.1
2023-02-02T00:23:39.233Z,5.1
2023-02-02T00:24:42.611Z,5.1
2023-02-02T00:25:46.014Z,5.1
2023-02-02T00:26:49.464Z,5.1
2023-02-02T00:27:52.851Z,5.2
2023-02-02T00:28:55.825Z,5.2
2023-02-02T00:29:59.305Z,5.1
2023-02-02T00:31:03.403Z,5.1
2023-02-02T00:32:07.168Z,5.1
2023-02-02T00:33:10.866Z,5.1
2023-02-02T00:34:14.224Z,5.2
2023-02-02T00:35:18.202Z,5.2
2023-02-02T00:36:21.489Z,5.2
2023-02-02T00:37:24.413Z,5.1
2023-02-02T00:38:28.335Z,5.1
2023-02-02T00:39:31.969Z,5.1
2023-02-02T00:40:34.135Z,5.1
2023-02-02T00:41:37.228Z,5.1
2023-02-02T00:42:41.112Z,5.1
2023-02-02T00:43:44.208Z,5.1
2023-02-02T00:44:47.213Z,5.1
2023-02-02T00:45:50.850Z,5.1
2023-02-02T00:46:53.944Z,5.1
2023-02-02T00:47:57.304Z,5.1
2023-02-02T00:49:01.051Z,5.1
2023-02-02T00:50:04.728Z,5.1
2023-02-02T00:51:07.732Z,5.1
2023-02-02T00:52:11.104Z,5.1
2023-02-02T00:53:14.475Z,5.1
2023-02-02T00:54:18.167Z,5.1
2023-02-02T00:55:21.661Z,5.1
2023-02-02T00:56:24.573Z,5.1
2023-02-02T00:57:27.939Z,5.1
2023-02-02T00:58:30.811Z,5.1
2023-02-02T00:59:34.300Z,5.1
2023-02-02T01:00:37.036Z,5.1
2023-02-02T01:01:40.497Z,5.1
2023-02-02T01:02:44.176Z,5.1
2023-02-02T01:03:47.616Z,5.1
2023-02-02T01:04:51.081Z,5.1
2023-02-02T01:05:54.142Z,5.1
2023-02-02T01:06:57.794Z,5.1
2023-02-02T01:08:01.269Z,5.1
2023-02-02T01:09:04.413Z,5.1
2023-02-02T01:10:07.994Z,5.1
2023-02-02T01:11:11.448Z,5.1
2023-02-02T01:12:14.778Z,5.1
2023-02-02T01:13:17.299Z,5.1
2023-02-02T01:14:20.083Z,5.1
2023-02-02T01:15:24.921Z,5.1
2023-02-02T01:16:29.262Z,5.1
2023-02-02T01:17:32.543Z,5.1
2023-02-02T01:18:35.950Z,5.1
2023-02-02T01:19:38.937Z,5.1
2023-02-02T01:20:42.504Z,5.1
2023-02-02T01:21:45.786Z,5.1
2023-02-02T01:22:49.426Z,5.2
2023-02-02T01:23:53.072Z,5.1
2023-02-02T01:24:56.744Z,5.2
2023-02-02T01:25:59.810Z,5.1
2023-02-02T01:27:02.818Z,5.1
2023-02-02T01:28:05.721Z,5.1
2023-02-02T01:29:08.816Z,5.1
2023-02-02T01:30:11.617Z,5.1
2023-02-02T01:31:14.534Z,5.1
2023-02-02T01:32:17.357Z,5.1
2023-02-02T01:33:20.027Z,5.1
2023-02-02T01:34:23.718Z,5.2
2023-02-02T01:35:28.125Z,5.1
2023-02-02T01:36:31.599Z,5.1
2023-02-02T01:37:34.976Z,5.1
2023-02-02T01:38:37.763Z,5.1
2023-02-02T01:39:41.029Z,5.2
2023-02-02T01:40:43.551Z,5.1
2023-02-02T01:41:46.634Z,5.1
2023-02-02T01:42:49.538Z,5.1
2023-02-02T01:43:52.253Z,5
2023-02-02T01:44:55.773Z,5
2023-02-02T01:46:00.297Z,5
2023-02-02T01:47:03.889Z,5
2023-02-02T01:48:07.597Z,4.9
2023-02-02T01:49:10.466Z,4.9
2023-02-02T01:50:13.554Z,4.9
2023-02-02T01:51:16.346Z,4.9
2023-02-02T01:52:20.035Z,4.9
2023-02-02T01:53:23.510Z,4.9
2023-02-02T01:54:26.936Z,4.9
2023-02-02T01:55:29.760Z,4.9
2023-02-02T01:56:32.202Z,4.9
2023-02-02T01:57:35.956Z,4.9
2023-02-02T01:58:39.609Z,4.9
2023-02-02T01:59:42.613Z,4.9
2023-02-02T02:00:48.565Z,4.9
2023-02-02T02:01:52.255Z,4.8
2023-02-02T02:02:55.014Z,4.8
2023-02-02T02:03:57.728Z,4.9
2023-02-02T02:05:01.525Z,4.9
2023-02-02T02:06:05.168Z,4.9
2023-02-02T02:07:07.965Z,4.9
2023-02-02T02:08:11.460Z,4.9
2023-02-02T02:09:14.170Z,4.9
2023-02-02T02:10:17.819Z,4.9
2023-02-02T02:11:21.160Z,4.9
2023-02-02T02:12:24.949Z,4.9
2023-02-02T02:13:27.742Z,4.9
2023-02-02T02:14:31.282Z,4.9
2023-02-02T02:15:34.101Z,4.9
2023-02-02T02:16:37.811Z,4.9
2023-02-02T02:17:41.500Z,4.9
2023-02-02T02:18:44.795Z,4.9
2023-02-02T02:19:47.784Z,4.9
2023-02-02T02:20:51.918Z,4.9
2023-02-02T02:21:55.384Z,4.9
2023-02-02T02:22:59.407Z,4.9
2023-02-02T02:24:03.431Z,4.9
2023-02-02T02:25:06.223Z,4.8
2023-02-02T02:26:08.937Z,4.8
2023-02-02T02:27:12.581Z,4.8
2023-02-02T02:28:16.299Z,4.7
2023-02-02T02:29:19.128Z,4.8
2023-02-02T02:30:21.847Z,4.8
2023-02-02T02:31:25.947Z,4.7
2023-02-02T02:32:28.936Z,4.7
2023-02-02T02:33:31.734Z,4.7
2023-02-02T02:34:34.752Z,4.7
2023-02-02T02:35:37.863Z,4.7
2023-02-02T02:36:40.743Z,4.7
2023-02-02T02:37:44.115Z,4.7
2023-02-02T02:38:47.940Z,4.7
2023-02-02T02:39:51.716Z,4.7
2023-02-02T02:40:54.133Z,4.6
2023-02-02T02:41:57.564Z,4.6
2023-02-02T02:43:00.019Z,4.6
2023-02-02T02:44:03.785Z,4.6
2023-02-02T02:45:06.422Z,4.6
2023-02-02T02:46:09.655Z,4.6
2023-02-02T02:47:12.527Z,4.5
2023-02-02T02:48:15.317Z,4.5
2023-02-02T02:49:18.502Z,4.5
2023-02-02T02:50:21.603Z,4.5
2023-02-02T02:51:24.683Z,4.5
2023-02-02T02:52:27.820Z,4.4
2023-02-02T02:53:30.812Z,4.4
2023-02-02T02:54:34.655Z,4.4
2023-02-02T02:55:37.515Z,4.4
2023-02-02T02:56:41.149Z,4.4
2023-02-02T02:57:44.867Z,4.3
2023-02-02T02:58:48.312Z,4.3
2023-02-02T02:59:50.920Z,4.3
2023-02-02T03:00:54.057Z,4.3
2023-02-02T03:01:57.608Z,4.3
2023-02-02T03:03:00.940Z,4.2
2023-02-02T03:04:03.740Z,4.3
2023-02-02T03:05:06.998Z,4.2
2023-02-02T03:06:11.012Z,4.2
2023-02-02T03:07:14.238Z,4.2
2023-02-02T03:08:17.641Z,4.2
2023-02-02T03:09:21.121Z,4.2
2023-02-02T03:10:23.848Z,4.1
2023-02-02T03:11:27.238Z,4.1
2023-02-02T03:12:30.093Z,4.1
2023-02-02T03:13:33.632Z,4.1
2023-02-02T03:14:37.012Z,4.2
2023-02-02T03:15:40.389Z,4.2
2023-02-02T03:16:43.481Z,4.1
2023-02-02T03:17:46.553Z,4.1
2023-02-02T03:18:49.614Z,4.1
2023-02-02T03:19:52.472Z,4.1
2023-02-02T03:20:55.276Z,4.1
2023-02-02T03:21:58.733Z,4.2
2023-02-02T03:23:01.801Z,4.1
2023-02-02T03:24:04.862Z,4.1
2023-02-02T03:25:07.636Z,4.1
2023-02-02T03:26:10.993Z,4.1
2023-02-02T03:27:14.584Z,4.1
2023-02-02T03:28:17.857Z,4.1
2023-02-02T03:29:20.908Z,4.1
2023-02-02T03:30:24.828Z,4.1
2023-02-02T03:31:28.672Z,4.1
2023-02-02T03:32:32.841Z,4.1
2023-02-02T03:33:36.206Z,4.1
2023-02-02T03:34:39.552Z,4.1
2023-02-02T03:35:42.307Z,4.1
2023-02-02T03:36:45.163Z,4.2
2023-02-02T03:37:48.468Z,4.2
2023-02-02T03:38:51.243Z,4.2
2023-02-02T03:39:55.753Z,4.2
2023-02-02T03:40:59.403Z,4.3
2023-02-02T03:42:02.582Z,4.3
2023-02-02T03:43:06.251Z,4.3
2023-02-02T03:44:09.385Z,4.3
2023-02-02T03:45:12.451Z,4.3
2023-02-02T03:46:15.694Z,4.3
2023-02-02T03:47:19.203Z,4.3
2023-02-02T03:48:22.550Z,4.3
2023-02-02T03:49:25.622Z,4.2
2023-02-02T03:50:28.904Z,4.2
2023-02-02T03:51:32.068Z,4.2
2023-02-02T03:52:35.143Z,4.2
2023-02-02T03:53:37.874Z,4.2
2023-02-02T03:54:41.272Z,4.2
2023-02-02T03:55:45.034Z,4.2
2023-02-02T03:56:48.833Z,4.2
2023-02-02T03:57:51.568Z,4.2
2023-02-02T03:58:55.202Z,4.2
2023-02-02T03:59:58.201Z,4.2
2023-02-02T04:01:01.358Z,4.2
2023-02-02T04:02:04.426Z,4.2
2023-02-02T04:03:07.615Z,4.2
2023-02-02T04:04:11.143Z,4.2
2023-02-02T04:05:14.485Z,4.1
2023-02-02T04:06:17.357Z,4.1
2023-02-02T04:07:21.048Z,4.1
2023-02-02T04:08:24.043Z,4.1
2023-02-02T04:09:27.413Z,4.1
2023-02-02T04:10:30.684Z,4.1
2023-02-02T04:11:34.040Z,4.2
2023-02-02T04:12:37.426Z,4.2
2023-02-02T04:13:40.523Z,4.1
2023-02-02T04:14:44.307Z,4.2
2023-02-02T04:15:47.354Z,4.2
2023-02-02T04:16:50.570Z,4.2
2023-02-02T04:17:53.984Z,4.2
2023-02-02T04:18:57.034Z,4.2
2023-02-02T04:20:00.731Z,4.1
2023-02-02T04:21:04.450Z,4.2
2023-02-02T04:22:07.308Z,4.2
2023-02-02T04:23:10.065Z,4.2
2023-02-02T04:24:12.625Z,4.2
2023-02-02T04:25:16.164Z,4.2
2023-02-02T04:26:19.843Z,4.1
2023-02-02T04:27:23.710Z,4.1
2023-02-02T04:28:27.129Z,4.1
2023-02-02T04:29:30.446Z,4.2
2023-02-02T04:30:34.143Z,4.2
2023-02-02T04:31:36.948Z,4.2
2023-02-02T04:32:40.107Z,4.2
2023-02-02T04:33:43.243Z,4.2
2023-02-02T04:34:46.339Z,4.2
2023-02-02T04:35:48.876Z,4.2
2023-02-02T04:36:52.156Z,4.2
2023-02-02T04:37:55.462Z,4.3
2023-02-02T04:38:58.378Z,4.3
2023-02-02T04:40:02.098Z,4.3
2023-02-02T04:41:05.199Z,4.3
2023-02-02T04:42:08.472Z,4.3
2023-02-02T04:43:11.709Z,4.3
2023-02-02T04:44:14.985Z,4.4
2023-02-02T04:45:17.771Z,4.4
2023-02-02T04:46:21.252Z,4.4
2023-02-02T04:47:24.264Z,4.4
2023-02-02T04:48:27.348Z,4.4
2023-02-02T04:49:30.416Z,4.4
2023-02-02T04:50:33.761Z,4.4
2023-02-02T04:51:36.857Z,4.4
2023-02-02T04:52:39.660Z,4.4
2023-02-02T04:53:42.384Z,4.4
2023-02-02T04:54:46.021Z,4.4
2023-02-02T04:55:48.768Z,4.4
2023-02-02T04:56:52.427Z,4.4
2023-02-02T04:57:55.530Z,4.4
2023-02-02T04:58:59.358Z,4.4
2023-02-02T05:00:02.695Z,4.4
2023-02-02T05:01:05.744Z,4.4
2023-02-02T05:02:08.913Z,4.5
2023-02-02T05:03:12.319Z,4.4
2023-02-02T05:04:15.844Z,4.4
2023-02-02T05:05:19.190Z,4.4
2023-02-02T05:06:22.654Z,4.5
2023-02-02T05:07:25.999Z,4.4
2023-02-02T05:08:29.351Z,4.4
2023-02-02T05:09:32.790Z,4.5
2023-02-02T05:10:35.943Z,4.5
2023-02-02T05:11:38.732Z,4.5
2023-02-02T05:12:42.156Z,4.5
2023-02-02T05:13:45.138Z,4.5
2023-02-02T05:14:48.571Z,4.5
2023-02-02T05:15:52.063Z,4.5
2023-02-02T05:16:56.298Z,4.5
2023-02-02T05:18:00.224Z,4.5
2023-02-02T05:19:03.709Z,4.5
2023-02-02T05:20:06.879Z,4.5
2023-02-02T05:21:09.903Z,4.5
2023-02-02T05:22:13.184Z,4.5
2023-02-02T05:23:16.625Z,4.5
2023-02-02T05:24:19.407Z,4.5
2023-02-02T05:25:22.896Z,4.5
2023-02-02T05:26:27.309Z,4.5
2023-02-02T05:27:30.481Z,4.5
2023-02-02T05:28:34.212Z,4.5
2023-02-02T05:29:37.648Z,4.5
2023-02-02T05:30:41.096Z,4.5
2023-02-02T05:31:44.585Z,4.5
2023-02-02T05:32:47.317Z,4.5
2023-02-02T05:33:50.753Z,4.5
2023-02-02T05:34:53.857Z,4.5
2023-02-02T05:35:56.945Z,4.5
2023-02-02T05:36:59.689Z,4.5
2023-02-02T05:38:02.036Z,4.5
2023-02-02T05:39:05.398Z,4.5
2023-02-02T05:40:08.135Z,4.5
2023-02-02T05:41:11.844Z,4.5
2023-02-02T05:42:15.262Z,4.6
2023-02-02T05:43:21.517Z,4.5
2023-02-02T05:44:24.479Z,4.6
2023-02-02T05:45:28.576Z,4.6
2023-02-02T05:46:31.751Z,4.6
2023-02-02T05:47:34.984Z,4.6
2023-02-02T05:48:37.495Z,4.5
2023-02-02T05:49:40.767Z,4.5
2023-02-02T05:50:43.924Z,4.5
2023-02-02T05:51:46.676Z,4.5
2023-02-02T05:52:49.483Z,4.5
2023-02-02T05:53:52.630Z,4.5
2023-02-02T05:54:56.087Z,4.5
2023-02-02T05:55:59.109Z,4.5
2023-02-02T05:57:02.245Z,4.5
2023-02-02T05:58:05.095Z,4.5
2023-02-02T05:59:08.288Z,4.5
2023-02-02T06:00:11.493Z,4.5
2023-02-02T06:01:14.226Z,4.4
2023-02-02T06:02:17.674Z,4.5
2023-02-02T06:03:21.848Z,4.5
2023-02-02T06:04:25.239Z,4.5
2023-02-02T06:05:29.122Z,4.4
2023-02-02T06:06:32.208Z,4.4
2023-02-02T06:07:35.077Z,4.4
2023-02-02T06:08:39.057Z,4.4
2023-02-02T06:09:41.792Z,4.4
2023-02-02T06:10:45.182Z,4.4
2023-02-02T06:11:48.539Z,4.4
2023-02-02T06:12:51.339Z,4.3
2023-02-02T06:13:53.484Z,4.3
2023-02-02T06:14:55.947Z,4.3
2023-02-02T06:15:59.380Z,4.3
2023-02-02T06:17:02.515Z,4.3
2023-02-02T06:18:06.139Z,4.3
2023-02-02T06:19:09.568Z,4.2
2023-02-02T06:20:12.296Z,4.3
2023-02-02T06:21:16.000Z,4.2
2023-02-02T06:22:18.986Z,4.2
2023-02-02T06:23:21.963Z,4.2
2023-02-02T06:24:24.960Z,4.2
2023-02-02T06:25:28.347Z,4.2
2023-02-02T06:26:31.929Z,4.1
2023-02-02T06:27:35.035Z,4.1
2023-02-02T06:28:38.122Z,4.1
2023-02-02T06:29:41.777Z,4.1
2023-02-02T06:30:46.551Z,4.1
2023-02-02T06:31:50.409Z,4.1
2023-02-02T06:32:53.247Z,4.1
2023-02-02T06:33:56.194Z,4
2023-02-02T06:34:59.502Z,4.1
2023-02-02T06:36:02.518Z,4
2023-02-02T06:37:06.189Z,4.1
2023-02-02T06:38:09.632Z,4
2023-02-02T06:39:11.808Z,4
2023-02-02T06:40:15.006Z,4
2023-02-02T06:41:18.708Z,4
2023-02-02T06:42:23.750Z,4
2023-02-02T06:43:26.470Z,4
2023-02-02T06:44:29.484Z,4
2023-02-02T06:45:32.189Z,4
2023-02-02T06:46:36.028Z,3.9
2023-02-02T06:47:39.523Z,3.9
2023-02-02T06:48:42.304Z,3.9
2023-02-02T06:49:45.842Z,3.9
2023-02-02T06:50:49.593Z,3.9
2023-02-02T06:51:52.127Z,3.9
2023-02-02T06:52:55.879Z,3.8
2023-02-02T06:54:01.168Z,3.8
2023-02-02T06:55:04.831Z,3.9
2023-02-02T06:56:07.341Z,3.8
2023-02-02T06:57:10.434Z,3.8
2023-02-02T06:58:14.525Z,3.8
2023-02-02T06:59:17.575Z,3.8
2023-02-02T07:00:22.579Z,3.9
2023-02-02T07:01:26.122Z,3.9
2023-02-02T07:02:29.262Z,3.9
2023-02-02T07:03:32.444Z,3.8
2023-02-02T07:04:35.870Z,3.8
2023-02-02T07:05:38.693Z,3.9
2023-02-02T07:06:41.446Z,3.9
2023-02-02T07:07:44.460Z,3.9
2023-02-02T07:09:04.357Z,3.9
2023-02-02T07:10:07.111Z,3.9
2023-02-02T07:11:18.539Z,4
2023-02-02T07:12:23.805Z,4
2023-02-02T07:13:27.308Z,4
2023-02-02T07:14:30.605Z,4.1
2023-02-02T07:15:34.063Z,4
2023-02-02T07:16:37.206Z,4
2023-02-02T07:17:40.577Z,4.1
2023-02-02T07:18:44.055Z,4.1
2023-02-02T07:19:47.336Z,4.1
2023-02-02T07:20:50.853Z,4.1
2023-02-02T07:21:54.236Z,4.1
2023-02-02T07:22:57.568Z,4.1
2023-02-02T07:24:00.502Z,4.1
2023-02-02T07:25:03.847Z,4.1
2023-02-02T07:26:06.912Z,4.2
2023-02-02T07:27:09.674Z,4.2
2023-02-02T07:28:12.453Z,4.1
2023-02-02T07:29:16.111Z,4.1
2023-02-02T07:30:19.533Z,4.1
2023-02-02T07:31:23.152Z,4.2
2023-02-02T07:32:26.903Z,4.2
2023-02-02T07:33:29.728Z,4.2
2023-02-02T07:34:33.166Z,4.1
2023-02-02T07:35:36.518Z,4.1
2023-02-02T07:36:39.902Z,4.1
2023-02-02T07:37:43.190Z,4.1
2023-02-02T07:38:46.277Z,4.1
2023-02-02T07:39:50.099Z,4.1
2023-02-02T07:40:53.189Z,4.1
2023-02-02T07:41:56.813Z,4.1
2023-02-02T07:42:59.818Z,4.1
2023-02-02T07:44:02.960Z,4.1
2023-02-02T07:45:29.851Z,4.1
2023-02-02T07:46:34.112Z,4.1
2023-02-02T07:47:39.733Z,4
2023-02-02T07:48:43.136Z,4.1
2023-02-02T07:49:46.837Z,4.1
2023-02-02T07:50:50.610Z,4.2
2023-02-02T07:51:54.520Z,4.2
2023-02-02T07:52:58.627Z,4.2
2023-02-02T07:54:02.098Z,4.2
2023-02-02T07:55:16.363Z,4.1
2023-02-02T07:56:19.765Z,4.2
2023-02-02T07:57:23.227Z,4.1
2023-02-02T07:58:26.225Z,4.1
2023-02-02T07:59:33.141Z,4.1
2023-02-02T08:00:37.683Z,4.1
2023-02-02T08:01:41.042Z,4.1
2023-02-02T08:02:44.346Z,4.1
2023-02-02T08:03:47.555Z,4
2023-02-02T08:04:50.655Z,4
2023-02-02T08:05:53.366Z,4
2023-02-02T08:06:57.111Z,4
2023-02-02T08:08:00.475Z,4
2023-02-02T08:09:04.137Z,3.9
2023-02-02T08:10:07.312Z,3.9
2023-02-02T08:11:10.688Z,3.9
2023-02-02T08:12:13.874Z,3.9
2023-02-02T08:13:17.632Z,3.9
2023-02-02T08:14:20.838Z,3.9
2023-02-02T08:15:26.622Z,3.9
2023-02-02T08:16:31.235Z,3.9
2023-02-02T08:17:34.137Z,4
2023-02-02T08:18:37.666Z,4
2023-02-02T08:19:40.575Z,4.1
2023-02-02T08:20:44.037Z,4.1
2023-02-02T08:21:47.391Z,4.1
2023-02-02T08:22:51.255Z,4.2
2023-02-02T08:23:54.740Z,4.2
2023-02-02T08:24:57.462Z,4.3
2023-02-02T08:26:01.188Z,4.2
2023-02-02T08:27:04.596Z,4.3
2023-02-02T08:28:07.772Z,4.3
2023-02-02T08:29:11.122Z,4.3
2023-02-02T08:30:14.316Z,4.3
2023-02-02T08:31:18.720Z,4.4
2023-02-02T08:32:21.915Z,4.5
2023-02-02T08:33:25.289Z,4.5
2023-02-02T08:34:28.591Z,4.6
2023-02-02T08:35:31.747Z,4.6
2023-02-02T08:36:34.469Z,4.7
2023-02-02T08:37:37.324Z,4.7
2023-02-02T08:38:40.827Z,4.7
2023-02-02T08:39:44.156Z,4.8
2023-02-02T08:40:47.923Z,4.8
2023-02-02T08:41:51.733Z,4.8
2023-02-02T08:42:55.642Z,4.9
2023-02-02T08:43:58.613Z,5
2023-02-02T08:46:07.219Z,5.1
2023-02-02T08:47:12.247Z,5.3
2023-02-02T08:48:15.739Z,5.3
2023-02-02T08:49:18.836Z,5.3
2023-02-02T08:50:22.357Z,5.3
2023-02-02T08:51:25.521Z,5.2
2023-02-02T08:52:29.315Z,5.2
2023-02-02T08:53:31.755Z,5.2
2023-02-02T08:54:35.217Z,5.2
2023-02-02T08:55:38.750Z,5.3
2023-02-02T08:56:42.133Z,5.3
2023-02-02T08:57:45.507Z,5.4
2023-02-02T08:58:49.340Z,5.5
2023-02-02T08:59:52.367Z,5.5
2023-02-02T09:00:55.805Z,5.6
2023-02-02T09:01:59.521Z,5.8
2023-02-02T09:03:02.914Z,5.8
2023-02-02T09:04:06.757Z,5.8
2023-02-02T09:05:10.220Z,5.7
2023-02-02T09:06:13.886Z,5.9
2023-02-02T09:07:19.335Z,5.9
2023-02-02T09:08:23.687Z,6.1
2023-02-02T09:09:27.050Z,6.1
2023-02-02T09:10:30.251Z,6.1
2023-02-02T09:11:33.637Z,6
2023-02-02T09:12:37.389Z,5.9
2023-02-02T09:13:41.061Z,6.1
2023-02-02T09:14:44.720Z,6.1
2023-02-02T09:15:48.441Z,6
2023-02-02T09:16:52.208Z,5.9
2023-02-02T09:17:55.322Z,5.8
2023-02-02T09:18:58.744Z,5.7
2023-02-02T09:20:01.823Z,5.5
2023-02-02T09:21:04.838Z,5.4
2023-02-02T09:22:07.998Z,5.3
2023-02-02T09:23:11.350Z,5.2
2023-02-02T09:24:14.418Z,5.1
2023-02-02T09:25:18.148Z,5
2023-02-02T09:26:21.728Z,5
2023-02-02T09:27:25.468Z,4.9
2023-02-02T09:28:29.188Z,4.8
2023-02-02T09:29:32.662Z,4.7
2023-02-02T09:30:36.351Z,4.6
2023-02-02T09:31:39.770Z,4.5
2023-02-02T09:32:43.529Z,4.5
2023-02-02T09:33:46.878Z,4.4
2023-02-02T09:34:50.641Z,4.4
2023-02-02T09:35:54.449Z,4.4
2023-02-02T09:36:58.474Z,4.3
2023-02-02T09:38:01.575Z,4.3
2023-02-02T09:39:05.610Z,4.3
2023-02-02T09:40:08.991Z,4.2
2023-02-02T09:41:12.351Z,4.2
2023-02-02T09:42:16.044Z,4.1
2023-02-02T09:43:19.736Z,4
2023-02-02T09:44:23.109Z,3.9
2023-02-02T09:45:28.719Z,4
2023-02-02T09:46:32.448Z,3.9
2023-02-02T09:47:35.907Z,3.9
2023-02-02T09:48:38.711Z,4
2023-02-02T09:49:41.778Z,4.1
2023-02-02T09:50:45.806Z,4.1
2023-02-02T09:51:49.859Z,4.1
2023-02-02T09:52:53.495Z,4.1
2023-02-02T09:53:57.823Z,4.1
2023-02-02T09:55:01.073Z,4.1
2023-02-02T09:56:04.392Z,4.2
2023-02-02T09:57:08.086Z,4.2
2023-02-02T09:58:11.604Z,4.2
2023-02-02T09:59:25.693Z,4.3
2023-02-02T10:00:29.159Z,4.4
2023-02-02T10:01:32.982Z,4.6
2023-02-02T10:02:36.731Z,4.9
2023-02-02T10:03:39.495Z,5.1
2023-02-02T10:04:42.540Z,5.4
2023-02-02T10:05:45.728Z,5.6
2023-02-02T10:06:48.917Z,5.8
2023-02-02T10:07:51.831Z,6.1
2023-02-02T10:08:54.777Z,6.3
2023-02-02T10:09:58.478Z,6.4
2023-02-02T10:11:01.968Z,6.6
2023-02-02T10:12:05.305Z,6.7
2023-02-02T10:13:08.780Z,7
2023-02-02T10:14:12.654Z,7.1
2023-02-02T10:15:16.334Z,7.2
2023-02-02T10:16:20.304Z,7.3
2023-02-02T10:17:23.752Z,7.4
2023-02-02T10:18:27.605Z,7.6
2023-02-02T10:19:30.480Z,7.9
2023-02-02T10:20:33.756Z,8.1
2023-02-02T10:21:37.542Z,8.2
2023-02-02T10:22:40.490Z,8.2
2023-02-02T10:23:43.579Z,8.3
2023-02-02T10:24:46.759Z,8.3
2023-02-02T10:25:50.134Z,8.3
2023-02-02T10:26:53.127Z,8.1
2023-02-02T10:27:56.465Z,8.3
2023-02-02T10:29:00.192Z,8.6
2023-02-02T10:30:03.681Z,8.7
2023-02-02T10:31:07.860Z,8.9
2023-02-02T10:32:11.453Z,8.8
2023-02-02T10:33:14.286Z,8.8
2023-02-02T10:34:17.168Z,8.6
2023-02-02T10:35:20.854Z,8.4
2023-02-02T10:36:23.826Z,8.2
2023-02-02T10:37:26.973Z,8.1
2023-02-02T10:38:30.000Z,8.3
2023-02-02T10:39:33.764Z,8.2
2023-02-02T10:40:37.246Z,8
2023-02-02T10:41:40.847Z,7.9
2023-02-02T10:42:43.859Z,7.8
2023-02-02T10:43:46.670Z,7.8
2023-02-02T10:44:50.350Z,7.6
2023-02-02T10:45:54.422Z,7.4
2023-02-02T10:46:57.903Z,7.4
2023-02-02T10:48:01.346Z,7.3
2023-02-02T10:49:04.618Z,7.3
2023-02-02T10:50:07.794Z,7.2
2023-02-02T10:51:10.839Z,7
2023-02-02T10:52:14.904Z,7
2023-02-02T10:53:18.658Z,7
2023-02-02T10:54:22.673Z,6.9
2023-02-02T10:55:26.373Z,6.8
2023-02-02T10:56:29.553Z,6.7
2023-02-02T10:57:33.325Z,6.7
2023-02-02T10:58:36.969Z,6.6
2023-02-02T10:59:40.353Z,6.6
2023-02-02T11:00:43.729Z,6.5
2023-02-02T11:01:46.749Z,6.5
2023-02-02T11:02:50.298Z,6.5
2023-02-02T11:03:54.175Z,6.4
2023-02-02T11:04:57.857Z,6.2
2023-02-02T11:06:01.019Z,6.2
2023-02-02T11:07:03.922Z,6.2
2023-02-02T11:08:06.816Z,6.3
2023-02-02T11:09:10.265Z,6.3
2023-02-02T11:10:13.007Z,6.3
2023-02-02T11:11:15.860Z,6.3
2023-02-02T11:12:19.386Z,6.5
2023-02-02T11:13:22.299Z,6.9
2023-02-02T11:14:25.695Z,7.1
2023-02-02T11:15:28.500Z,7.4
2023-02-02T11:16:46.286Z,7.6
2023-02-02T11:17:50.579Z,7.9
2023-02-02T11:18:54.327Z,8.1
2023-02-02T11:19:57.420Z,8.2
2023-02-02T11:21:00.247Z,8.2
2023-02-02T11:22:03.881Z,8.2
2023-02-02T11:23:07.827Z,8.3
2023-02-02T11:24:11.481Z,8.4
2023-02-02T11:25:14.508Z,8.5
2023-02-02T11:26:18.261Z,8.4
2023-02-02T11:27:21.106Z,8.6
2023-02-02T11:28:25.138Z,8.6
2023-02-02T11:29:28.554Z,8.5
2023-02-02T11:30:31.301Z,8.5
2023-02-02T11:31:35.438Z,8.4
2023-02-02T11:32:39.040Z,8.3
2023-02-02T11:33:42.477Z,8.2
2023-02-02T11:34:44.933Z,8.2
2023-02-02T11:35:48.109Z,8.1
2023-02-02T11:36:52.152Z,7.9
2023-02-02T11:37:55.874Z,7.8
2023-02-02T11:38:59.907Z,7.8
2023-02-02T11:40:03.016Z,7.7
2023-02-02T11:41:05.688Z,7.5
2023-02-02T11:42:09.308Z,7.5
2023-02-02T11:43:12.526Z,7.6
2023-02-02T11:44:15.260Z,7.6
2023-02-02T11:45:17.709Z,7.7
2023-02-02T11:46:22.560Z,7.7
2023-02-02T11:47:25.649Z,7.7
2023-02-02T11:48:29.137Z,7.8
2023-02-02T11:49:32.566Z,7.7
2023-02-02T11:50:35.408Z,7.8
2023-02-02T11:51:38.238Z,7.8
2023-02-02T11:52:41.986Z,7.8
2023-02-02T11:53:45.362Z,8.2
2023-02-02T11:54:48.781Z,8.2
2023-02-02T11:55:52.105Z,8.2
2023-02-02T11:56:55.273Z,8.2
2023-02-02T11:57:58.614Z,8.3
2023-02-02T11:59:02.250Z,8.3
2023-02-02T12:00:05.253Z,8.2
2023-02-02T12:01:08.987Z,8.1
2023-02-02T12:02:12.770Z,8
2023-02-02T12:03:15.895Z,7.9
2023-02-02T12:04:19.094Z,8
2023-02-02T12:05:22.903Z,7.9
2023-02-02T12:06:26.402Z,7.9
2023-02-02T12:07:29.844Z,8
2023-02-02T12:08:33.298Z,8.1
2023-02-02T12:09:36.396Z,8
2023-02-02T12:10:39.655Z,7.9
2023-02-02T12:11:43.360Z,7.9
2023-02-02T12:12:46.802Z,7.9
2023-02-02T12:13:49.785Z,8.1
2023-02-02T12:14:53.239Z,8.3
2023-02-02T12:15:57.191Z,8.3
2023-02-02T12:17:00.695Z,8.1
2023-02-02T12:18:03.895Z,8
2023-02-02T12:19:07.463Z,7.9
2023-02-02T12:20:11.188Z,7.8
2023-02-02T12:21:14.731Z,7.8
2023-02-02T12:22:18.369Z,7.8
2023-02-02T12:23:22.252Z,7.6
2023-02-02T12:24:25.253Z,7.6
2023-02-02T12:25:29.390Z,7.7
2023-02-02T12:26:32.599Z,7.9
2023-02-02T12:27:36.348Z,8.1
2023-02-02T12:28:39.732Z,8
2023-02-02T12:29:42.803Z,8.2
2023-02-02T12:30:46.492Z,8.1
2023-02-02T12:31:50.003Z,8.2
2023-02-02T12:32:53.984Z,8.3
2023-02-02T12:33:58.079Z,8.5
2023-02-02T12:35:01.100Z,8.6
2023-02-02T12:36:04.111Z,8.7
2023-02-02T12:37:07.887Z,8.8
2023-02-02T12:38:10.924Z,8.7
2023-02-02T12:39:14.313Z,8.7
2023-02-02T12:40:17.137Z,9
2023-02-02T12:41:20.315Z,9.2
2023-02-02T12:42:24.429Z,9.4
2023-02-02T12:43:28.575Z,9.5
2023-02-02T12:44:32.017Z,9.7
2023-02-02T12:45:35.717Z,9.8
2023-02-02T12:46:39.111Z,10
2023-02-02T12:47:42.198Z,10.1
2023-02-02T12:48:45.002Z,10.4
2023-02-02T12:49:48.188Z,10.4
2023-02-02T12:50:52.049Z,10.2
2023-02-02T12:51:55.053Z,10.1
2023-02-02T12:52:58.536Z,10.2
2023-02-02T12:54:57.852Z,10.2
2023-02-02T12:56:02.701Z,10.4
2023-02-02T12:57:07.580Z,10.4
2023-02-02T12:58:11.283Z,10.2
2023-02-02T12:59:14.074Z,10.3
2023-02-02T13:00:17.415Z,10.5
2023-02-02T13:01:21.864Z,10.7
2023-02-02T13:02:25.214Z,10.9
2023-02-02T13:03:28.823Z,11.1
2023-02-02T13:04:32.020Z,11.2
2023-02-02T13:05:35.803Z,11.1
2023-02-02T13:06:39.253Z,10.9
2023-02-02T13:07:42.701Z,10.4
2023-02-02T13:08:46.258Z,10.4
2023-02-02T13:09:50.064Z,10.4
2023-02-02T13:10:53.823Z,10.3
2023-02-02T13:11:57.567Z,10.4
2023-02-02T13:13:00.710Z,10.6
2023-02-02T13:14:03.821Z,10.7
2023-02-02T13:15:07.335Z,10.8
2023-02-02T13:16:10.669Z,10.9
2023-02-02T13:17:14.185Z,10.8
2023-02-02T13:18:18.181Z,10.8
2023-02-02T13:19:21.511Z,10.6
2023-02-02T13:20:26.613Z,10.8
2023-02-02T13:21:30.189Z,10.7
2023-02-02T13:22:33.895Z,10.7
2023-02-02T13:23:37.691Z,10.6
2023-02-02T13:24:41.737Z,10.5
2023-02-02T13:25:44.658Z,10.5
2023-02-02T13:26:48.760Z,10.5
2023-02-02T13:27:52.470Z,10.4
2023-02-02T13:28:56.298Z,10.4
2023-02-02T13:29:59.356Z,10.4
2023-02-02T13:31:06.965Z,10.6
2023-02-02T13:32:10.685Z,10.6
2023-02-02T13:33:13.910Z,10.8
2023-02-02T13:34:17.271Z,10.8
2023-02-02T13:35:20.377Z,10.9
2023-02-02T13:36:24.886Z,10.9
2023-02-02T13:37:28.592Z,11
2023-02-02T13:38:32.324Z,10.9
2023-02-02T13:39:35.762Z,10.9
2023-02-02T13:40:40.287Z,10.8
2023-02-02T13:41:43.912Z,10.6
2023-02-02T13:42:46.474Z,10.6
2023-02-02T13:43:49.618Z,10.6
2023-02-02T13:44:53.318Z,10.7
2023-02-02T13:45:56.895Z,10.6
2023-02-02T13:47:00.151Z,10.5
2023-02-02T13:48:03.858Z,10.4
2023-02-02T13:49:07.904Z,10.1
2023-02-02T13:50:11.623Z,10.1
2023-02-02T13:51:15.333Z,9.9
2023-02-02T13:52:18.362Z,9.9
2023-02-02T13:53:21.415Z,9.8
2023-02-02T13:54:24.793Z,9.7
2023-02-02T13:55:29.618Z,9.6
2023-02-02T13:56:32.694Z,9.6
2023-02-02T13:57:35.474Z,9.5
2023-02-02T13:58:39.098Z,9.3
2023-02-02T13:59:42.829Z,9.3
2023-02-02T14:00:46.563Z,9.1
2023-02-02T14:01:49.935Z,9
2023-02-02T14:02:54.447Z,8.9
2023-02-02T14:03:57.804Z,8.8
2023-02-02T14:05:00.599Z,8.8
2023-02-02T14:06:04.635Z,8.8
2023-02-02T14:08:11.839Z,8.6
2023-02-02T14:09:14.866Z,8.6
2023-02-02T14:10:18.036Z,8.6
2023-02-02T14:11:21.758Z,8.5
2023-02-02T14:12:25.612Z,8.5
2023-02-02T14:13:28.615Z,8.5
2023-02-02T14:14:32.052Z,8.5
2023-02-02T14:15:36.064Z,8.4
2023-02-02T14:16:39.497Z,8.4
2023-02-02T14:17:42.923Z,8.4
2023-02-02T14:18:46.030Z,8.5
2023-02-02T14:19:49.403Z,8.4
2023-02-02T14:20:52.241Z,8.4
2023-02-02T14:21:55.587Z,8.4
2023-02-02T14:22:59.325Z,8.4
2023-02-02T14:24:02.842Z,8.3
2023-02-02T14:25:06.044Z,8.3
2023-02-02T14:26:09.635Z,8.3
2023-02-02T14:27:13.345Z,8.3
2023-02-02T14:28:16.431Z,8.3
2023-02-02T14:29:19.740Z,8.3
2023-02-02T14:30:24.607Z,8.3
2023-02-02T14:31:30.350Z,8.2
2023-02-02T14:32:34.589Z,8.2
2023-02-02T14:33:37.880Z,8.2
2023-02-02T14:34:41.281Z,8.2
2023-02-02T14:35:44.645Z,8.2
2023-02-02T14:36:47.098Z,8.1
2023-02-02T14:37:50.755Z,8.1
2023-02-02T14:38:53.965Z,8.1